This is the latest recevied weather packets stored in our database for station/object KB3FKJ. If no packets are shown the sender has not sent any weather packets the latest 10 day(s).
| Time | Temp. | Humidity | Pressure | Rain* | Wind** | Luminosity | Snow |
|---|---|---|---|---|---|---|---|
| 1777946499 | 16.11° C | 69% | 1007.7 hPa | 0 mm | - | 0 W/m² | - |
| 1777946197 | 16.11° C | 70% | 1007.9 hPa | 0 mm | - | 0 W/m² | - |
| 1777945893 | 16.11° C | 69% | 1007.9 hPa | 0 mm | - | 0 W/m² | - |
| 1777945590 | 16.67° C | 69% | 1007.7 hPa | 0 mm | - | 0 W/m² | - |
| 1777945287 | 16.67° C | 67% | 1007.6 hPa | 0 mm | - | 0 W/m² | - |
| 1777944985 | 17.22° C | 65% | 1007.6 hPa | 0 mm | - | 0 W/m² | - |
| 1777944682 | 17.22° C | 64% | 1007.5 hPa | 0 mm | - | 0 W/m² | - |
| 1777944380 | 17.78° C | 63% | 1007.7 hPa | 0 mm | - | 0 W/m² | - |
| 1777944077 | 18.89° C | 53% | 1007.8 hPa | 0 mm | - | 0 W/m² | - |
| 1777943772 | 18.89° C | 50% | 1007.6 hPa | 0 mm | - | 0 W/m² | - |
| 1777943470 | 18.89° C | 50% | 1007.3 hPa | 0 mm | - | 0 W/m² | - |
| 1777943165 | 19.44° C | 50% | 1007.3 hPa | 0 mm | - | 0 W/m² | - |
| 1777942862 | 18.89° C | 51% | 1007.1 hPa | 0 mm | - | 0 W/m² | - |
| 1777942558 | 18.89° C | 50% | 1007.1 hPa | 0 mm | - | 0 W/m² | - |
| 1777942256 | 19.44° C | 50% | 1007.2 hPa | 0 mm | - | 0 W/m² | - |
| 1777941953 | 19.44° C | 49% | 1007.2 hPa | 0 mm | - | 0 W/m² | - |
| 1777941649 | 19.44° C | 49% | 1007.2 hPa | 0 mm | - | 0 W/m² | - |
| 1777941347 | 19.44° C | 49% | 1006.9 hPa | 0 mm | - | 0 W/m² | - |
| 1777941044 | 19.44° C | 49% | 1007.2 hPa | 0 mm | - | 0 W/m² | - |
| 1777940743 | 20° C | 48% | 1007.2 hPa | 0 mm | - | 0 W/m² | - |
| 1777940438 | 20° C | 48% | 1007 hPa | 0 mm | - | 0 W/m² | - |
| 1777940135 | 20° C | 48% | 1006.9 hPa | 0 mm | - | 1 W/m² | - |
| 1777939832 | 20° C | 47% | 1006.9 hPa | 0 mm | - | 2 W/m² | - |
| 1777939529 | 20.56° C | 46% | 1006.8 hPa | 0 mm | - | 3 W/m² | - |
| 1777939227 | 20.56° C | 47% | 1006.8 hPa | 0 mm | - | 5 W/m² | - |
* Rain latest hour (hover to see other rain measurements)
** Current wind speed in m/s (hover to see current wind gust speed)